createdAt,value
2023-01-09T10:03:02.689Z,100255.22
2023-01-09T10:05:35.315Z,100238.09
2023-01-09T10:08:15.685Z,99818.53
2023-01-09T10:10:49.327Z,99655.50
2023-01-09T10:13:37.283Z,99527.69
2023-01-09T10:16:15.660Z,99468.59
2023-01-09T10:18:58.073Z,99434.25
2023-01-09T10:21:33.114Z,99444.38
2023-01-09T10:24:13.060Z,99450.66
2023-01-09T10:26:47.694Z,99437.63
2023-01-09T10:29:42.009Z,99424.22
2023-01-09T10:32:34.554Z,99432.47
2023-01-09T10:35:19.388Z,99436.94
2023-01-09T10:37:53.155Z,99424.28
2023-01-09T10:40:26.384Z,99422.72
2023-01-09T10:42:58.371Z,99441.25
2023-01-09T10:45:30.026Z,99459.00
2023-01-09T10:48:03.355Z,99466.13
2023-01-09T10:50:36.881Z,99479.13
2023-01-09T10:53:17.207Z,99494.88
2023-01-09T10:55:47.745Z,99472.09
2023-01-09T10:58:22.647Z,99506.03
2023-01-09T11:00:51.842Z,99523.31
2023-01-09T11:03:22.294Z,99496.75
2023-01-09T11:05:54.999Z,99471.47
2023-01-09T11:08:28.355Z,99479.63
2023-01-09T11:10:58.496Z,99464.63
2023-01-09T11:13:31.869Z,99461.19
2023-01-09T11:16:07.110Z,99470.13
2023-01-09T11:18:38.966Z,99473.56
2023-01-09T11:21:25.665Z,99469.34
2023-01-09T11:23:53.565Z,99508.69
2023-01-09T11:26:26.776Z,99498.31
2023-01-09T11:29:08.867Z,99509.63
2023-01-09T11:31:36.791Z,99515.47
2023-01-09T11:34:04.859Z,99529.84
2023-01-09T11:36:34.461Z,99535.75
2023-01-09T11:39:03.731Z,99479.63
2023-01-09T11:41:35.523Z,99474.03
2023-01-09T11:44:05.629Z,99471.03
2023-01-09T11:46:39.552Z,99465.44
2023-01-09T11:49:22.863Z,99387.72
2023-01-09T11:54:51.496Z,99408.78
2023-01-09T11:57:19.673Z,99458.13
2023-01-09T11:59:47.669Z,99458.25
2023-01-09T12:02:42.596Z,99389.69
2023-01-09T12:05:20.314Z,99315.97
2023-01-09T12:08:07.043Z,99323.03
2023-01-09T12:11:21.701Z,99289.31
2023-01-09T12:14:12.261Z,99263.50
2023-01-09T12:16:52.161Z,99249.25
2023-01-09T12:19:46.511Z,99243.56
2023-01-09T12:22:23.835Z,99255.41
2023-01-09T12:25:11.260Z,99228.38
2023-01-09T12:28:00.147Z,99236.72
2023-01-09T12:30:44.250Z,99173.78
2023-01-09T12:33:31.239Z,99096.59
2023-01-09T12:36:11.058Z,99040.81
2023-01-09T12:38:48.580Z,99059.81
2023-01-09T12:41:36.544Z,99097.75
2023-01-09T12:44:35.163Z,99154.94
2023-01-09T12:47:22.686Z,99236.34
2023-01-09T12:49:59.657Z,99215.84
2023-01-09T12:52:33.137Z,99239.13
2023-01-09T12:55:07.128Z,99255.53
2023-01-09T12:57:38.857Z,99283.72
2023-01-09T13:00:18.923Z,99303.44
2023-01-09T13:03:00.633Z,99268.03
2023-01-09T13:05:45.481Z,99234.84
2023-01-09T13:08:19.258Z,99231.41
2023-01-09T13:10:50.384Z,99182.84
2023-01-09T13:13:24.471Z,99157.09
2023-01-09T13:15:58.289Z,99206.94
2023-01-09T13:18:35.099Z,99238.72
2023-01-09T13:21:03.581Z,99215.94
2023-01-09T13:23:36.861Z,99240.00
2023-01-09T13:26:07.321Z,99249.22
2023-01-09T13:28:40.857Z,99285.84
2023-01-09T13:31:39.225Z,99298.16
2023-01-09T13:34:21.753Z,99313.09
2023-01-09T13:36:52.996Z,99316.59
2023-01-09T13:39:23.886Z,99344.41
2023-01-09T13:42:13.597Z,99312.69
2023-01-09T13:44:41.899Z,99341.84
2023-01-09T13:47:20.031Z,99344.31
2023-01-09T13:50:02.800Z,99324.84
2023-01-09T13:52:37.395Z,99332.06
2023-01-09T13:55:28.880Z,99359.97
2023-01-09T13:58:18.899Z,99325.53
2023-01-09T14:00:55.848Z,99337.28
2023-01-09T14:03:29.476Z,99335.69
2023-01-09T14:06:20.480Z,99343.53
2023-01-09T14:08:50.930Z,99356.09
2023-01-09T14:11:27.513Z,99363.09
2023-01-09T14:14:08.285Z,99372.59
2023-01-09T14:16:38.899Z,99380.47
2023-01-09T14:19:24.464Z,99390.84
2023-01-09T14:21:55.362Z,99382.75
2023-01-09T14:24:29.779Z,99383.59
2023-01-09T14:26:59.556Z,99392.34
2023-01-09T14:29:47.475Z,99370.53
2023-01-09T14:32:46.615Z,99394.44
2023-01-09T14:35:20.879Z,99388.28
2023-01-09T14:38:02.674Z,99364.63
2023-01-09T14:40:31.617Z,99376.28
2023-01-09T14:43:09.985Z,99376.47
2023-01-09T14:45:41.126Z,99385.31
2023-01-09T14:48:13.146Z,99356.44
2023-01-09T14:50:47.779Z,99352.25
2023-01-09T14:53:19.875Z,99353.16
2023-01-09T14:55:52.502Z,99355.09
2023-01-09T14:58:23.408Z,99352.50
2023-01-09T15:00:55.759Z,99364.00
2023-01-09T15:03:26.078Z,99384.19
2023-01-09T15:05:55.796Z,99379.72
2023-01-09T15:08:27.200Z,99377.06
2023-01-09T15:10:57.390Z,99386.84
2023-01-09T15:13:31.951Z,99363.22
2023-01-09T15:16:01.366Z,99356.81
2023-01-09T15:18:31.553Z,99369.59
2023-01-09T15:21:03.090Z,99388.38
2023-01-09T15:23:32.568Z,99407.88
2023-01-09T15:26:14.488Z,99422.13
2023-01-09T15:28:44.257Z,99437.09
2023-01-09T15:31:16.054Z,99434.75
2023-01-09T15:33:46.368Z,99439.31
2023-01-09T15:36:19.490Z,99453.53
2023-01-09T15:38:48.289Z,99438.81
2023-01-09T15:41:39.660Z,99453.97
2023-01-09T15:44:13.240Z,99454.88
2023-01-09T15:46:42.429Z,99478.78
2023-01-09T15:49:13.551Z,99482.28
2023-01-09T15:51:44.576Z,99480.59
2023-01-09T15:54:15.895Z,99485.03
2023-01-09T15:56:46.129Z,99475.34
2023-01-09T15:59:28.085Z,99477.94
2023-01-09T16:02:14.406Z,99472.63
2023-01-09T16:04:42.425Z,99462.84
2023-01-09T16:07:16.425Z,99443.44
2023-01-09T16:09:47.512Z,99436.50
2023-01-09T16:12:21.606Z,99436.50
2023-01-09T16:14:53.408Z,99407.56
2023-01-09T16:17:23.933Z,99409.59
2023-01-09T16:19:54.412Z,99402.66
2023-01-09T16:22:26.457Z,99378.38
2023-01-09T16:24:55.767Z,99354.31
2023-01-09T16:27:26.348Z,99344.34
2023-01-09T16:29:57.853Z,99335.47
2023-01-09T16:32:29.470Z,99357.06
2023-01-09T16:35:04.670Z,99358.59
2023-01-09T16:37:36.141Z,99375.69
2023-01-09T16:40:32.297Z,99400.00
2023-01-09T16:43:00.875Z,99437.19
2023-01-09T16:45:31.904Z,99445.38
2023-01-09T16:48:00.400Z,99464.94
2023-01-09T16:50:28.501Z,99467.81
2023-01-09T16:52:58.779Z,99464.63
2023-01-09T16:55:26.727Z,99465.75
2023-01-09T16:57:54.753Z,99486.94
2023-01-09T17:00:22.954Z,99479.16
2023-01-09T17:02:50.766Z,99515.81
2023-01-09T17:05:18.677Z,99530.28
2023-01-09T17:07:46.602Z,99534.44
2023-01-09T17:10:21.864Z,99522.59
2023-01-09T17:12:50.293Z,99512.72
2023-01-09T17:15:18.045Z,99491.19
2023-01-09T17:17:46.075Z,99461.97
2023-01-09T17:20:18.680Z,99455.56
2023-01-09T17:22:46.521Z,99447.69
2023-01-09T17:25:33.071Z,99435.44
2023-01-09T17:28:20.579Z,99437.09
2023-01-09T17:30:48.465Z,99420.41
2023-01-09T17:33:17.659Z,99417.75
2023-01-09T17:35:45.833Z,99405.63
2023-01-09T17:38:15.498Z,99396.78
2023-01-09T17:40:44.491Z,99374.81
2023-01-09T17:43:13.956Z,99371.47
2023-01-09T17:45:43.147Z,99361.91
2023-01-09T17:48:16.568Z,99345.47
2023-01-09T17:50:45.645Z,99332.59
2023-01-09T17:53:13.679Z,99328.50
2023-01-09T17:55:42.970Z,99301.69
2023-01-09T17:58:26.430Z,99323.91
2023-01-09T18:00:54.306Z,99327.00
2023-01-09T18:03:23.305Z,99333.41
2023-01-09T18:05:51.519Z,99347.63
2023-01-09T18:08:19.738Z,99362.91
2023-01-09T18:10:48.541Z,99390.16
2023-01-09T18:13:18.322Z,99411.19
2023-01-09T18:15:47.142Z,99418.22
2023-01-09T18:18:16.146Z,99443.50
2023-01-09T18:20:45.654Z,99456.53
2023-01-09T18:23:14.336Z,99468.56
2023-01-09T18:25:42.799Z,99483.16
2023-01-09T18:28:12.145Z,99473.19
2023-01-09T18:30:44.094Z,99471.94
2023-01-09T18:33:12.263Z,99464.59
2023-01-09T18:35:40.148Z,99471.47
2023-01-09T18:38:08.479Z,99479.28
2023-01-09T18:40:37.144Z,99464.13
2023-01-09T18:43:07.772Z,99465.78
2023-01-09T18:45:37.806Z,99456.97
2023-01-09T18:48:07.897Z,99462.03
2023-01-09T18:50:35.707Z,99467.97
2023-01-09T18:53:03.698Z,99445.97
2023-01-09T18:55:31.832Z,99447.78
2023-01-09T18:57:59.709Z,99437.94
2023-01-09T19:00:27.635Z,99441.47
2023-01-09T19:02:55.460Z,99423.16
2023-01-09T19:05:26.005Z,99407.38
2023-01-09T19:07:54.091Z,99409.25
2023-01-09T19:10:21.873Z,99413.72
2023-01-09T19:12:49.749Z,99427.91
2023-01-09T19:15:17.727Z,99444.59
2023-01-09T19:17:46.790Z,99433.28
2023-01-09T19:20:14.759Z,99437.88
2023-01-09T19:22:44.067Z,99444.97
2023-01-09T19:25:12.915Z,99456.41
2023-01-09T19:27:40.763Z,99463.59
2023-01-09T19:30:09.960Z,99479.41
2023-01-09T19:32:38.384Z,99492.59
2023-01-09T19:35:06.974Z,99510.84
2023-01-09T19:37:37.181Z,99518.72
2023-01-09T19:40:07.696Z,99532.69
2023-01-09T19:42:35.619Z,99545.75
2023-01-09T19:45:03.570Z,99524.56
2023-01-09T19:47:35.616Z,99525.28
2023-01-09T19:50:05.157Z,99522.69
2023-01-09T19:52:33.203Z,99514.75
2023-01-09T19:55:01.262Z,99510.38
2023-01-09T19:57:30.754Z,99508.75
2023-01-09T19:59:58.662Z,99497.50
2023-01-09T20:02:28.021Z,99478.41
2023-01-09T20:04:56.072Z,99477.63
2023-01-09T20:07:23.903Z,99478.81
2023-01-09T20:09:51.768Z,99488.84
2023-01-09T20:12:19.691Z,99481.13
2023-01-09T20:14:49.702Z,99476.97
2023-01-09T20:17:17.874Z,99457.25
2023-01-09T20:19:46.289Z,99451.38
2023-01-09T20:22:14.219Z,99471.09
2023-01-09T20:24:41.994Z,99490.63
2023-01-09T20:27:10.074Z,99475.19
2023-01-09T20:29:38.091Z,99508.69
2023-01-09T20:32:08.943Z,99551.63
2023-01-09T20:34:36.960Z,99565.50
2023-01-09T20:37:04.868Z,99614.72
2023-01-09T20:39:32.738Z,99615.44
2023-01-09T20:42:00.868Z,99632.06
2023-01-09T20:44:28.828Z,99645.06
2023-01-09T20:46:56.788Z,99661.53
2023-01-09T20:49:26.087Z,99656.00
2023-01-09T20:51:54.003Z,99665.44
2023-01-09T20:54:22.854Z,99660.00
2023-01-09T20:56:50.823Z,99659.69
2023-01-09T20:59:21.968Z,99662.16
2023-01-09T21:01:50.129Z,99652.13
2023-01-09T21:04:18.921Z,99642.38
2023-01-09T21:06:50.050Z,99640.34
2023-01-09T21:09:18.746Z,99651.50
2023-01-09T21:11:46.613Z,99643.38
2023-01-09T21:14:14.409Z,99651.91
2023-01-09T21:16:42.488Z,99641.16
2023-01-09T21:19:11.882Z,99636.53
2023-01-09T21:21:39.727Z,99627.66
2023-01-09T21:24:09.574Z,99623.16
2023-01-09T21:26:37.386Z,99625.81
2023-01-09T21:29:08.252Z,99618.69
2023-01-09T21:31:36.367Z,99620.50
2023-01-09T21:34:06.518Z,99616.06
2023-01-09T21:36:36.140Z,99646.69
2023-01-09T21:39:07.811Z,99643.81
2023-01-09T21:41:55.103Z,99632.34
2023-01-09T21:44:40.727Z,99625.25
2023-01-09T21:47:08.567Z,99630.66
2023-01-09T21:49:40.204Z,99640.31
2023-01-09T21:52:08.317Z,99662.31
2023-01-09T21:54:36.248Z,99661.47
2023-01-09T21:57:06.580Z,99680.66
2023-01-09T21:59:34.756Z,99680.50
2023-01-09T22:02:02.748Z,99692.59
2023-01-09T22:04:30.917Z,99665.16
2023-01-09T22:06:58.915Z,99673.84
2023-01-09T22:09:26.957Z,99660.59
2023-01-09T22:11:54.843Z,99660.47
2023-01-09T22:14:24.294Z,99668.41
2023-01-09T22:16:52.188Z,99675.53
2023-01-09T22:19:20.375Z,99671.91
2023-01-09T22:21:49.339Z,99670.22
2023-01-09T22:24:19.831Z,99689.63
2023-01-09T22:26:47.836Z,99673.00
2023-01-09T22:29:16.329Z,99695.09
2023-01-09T22:31:45.769Z,99710.81
2023-01-09T22:34:16.161Z,99694.88
2023-01-09T22:36:44.571Z,99682.59
2023-01-09T22:39:14.482Z,99689.63
2023-01-09T22:41:42.696Z,99693.31
2023-01-09T22:44:11.787Z,99696.81
2023-01-09T22:46:39.907Z,99694.34
2023-01-09T22:49:12.056Z,99701.41
2023-01-09T22:51:39.976Z,99723.41
2023-01-09T22:54:08.038Z,99720.94
2023-01-09T22:56:36.219Z,99737.53
2023-01-09T22:59:04.183Z,99743.78
2023-01-09T23:01:32.082Z,99766.66
2023-01-09T23:04:00.053Z,99783.19
2023-01-09T23:06:29.286Z,99776.25
2023-01-09T23:08:57.179Z,99783.13
2023-01-09T23:11:45.595Z,99779.78
2023-01-09T23:14:13.922Z,99794.53
2023-01-09T23:16:42.491Z,99764.72
2023-01-09T23:19:12.883Z,99770.88
2023-01-09T23:21:42.336Z,99759.41
2023-01-09T23:24:10.961Z,99748.81
2023-01-09T23:26:39.628Z,99761.13
2023-01-09T23:29:07.835Z,99770.81
2023-01-09T23:31:36.275Z,99770.81
2023-01-09T23:34:05.405Z,99763.78
2023-01-09T23:36:33.202Z,99769.94
2023-01-09T23:39:04.021Z,99777.81
2023-01-09T23:41:45.883Z,99775.56
2023-01-09T23:44:13.785Z,99802.88
2023-01-09T23:46:41.566Z,99820.72
2023-01-09T23:49:09.889Z,99824.34
2023-01-09T23:51:37.793Z,99858.59
2023-01-09T23:54:07.134Z,99849.06
2023-01-09T23:56:35.155Z,99870.19
2023-01-09T23:59:03.359Z,99874.81
